sensor_id;sensor_type;location;lat;lon;timestamp;temperature;humidity
71514;DHT22;59335;46.652;21.272;2022-12-18T00:00:30;22.12;35.91
71514;DHT22;59335;46.652;21.272;2022-12-18T00:03:33;22.13;35.88
71514;DHT22;59335;46.652;21.272;2022-12-18T00:06:36;22.12;35.85
71514;DHT22;59335;46.652;21.272;2022-12-18T00:09:39;22.12;35.82
71514;DHT22;59335;46.652;21.272;2022-12-18T00:12:42;22.12;35.85
71514;DHT22;59335;46.652;21.272;2022-12-18T00:15:44;22.10;35.78
71514;DHT22;59335;46.652;21.272;2022-12-18T00:18:53;22.10;35.80
71514;DHT22;59335;46.652;21.272;2022-12-18T00:21:56;22.09;35.77
71514;DHT22;59335;46.652;21.272;2022-12-18T00:25:03;22.10;35.75
71514;DHT22;59335;46.652;21.272;2022-12-18T00:28:06;22.12;35.71
71514;DHT22;59335;46.652;21.272;2022-12-18T00:31:13;22.12;35.70
71514;DHT22;59335;46.652;21.272;2022-12-18T00:34:17;22.10;35.72
71514;DHT22;59335;46.652;21.272;2022-12-18T00:37:20;22.09;35.66
71514;DHT22;59335;46.652;21.272;2022-12-18T00:40:25;22.12;35.61
71514;DHT22;59335;46.652;21.272;2022-12-18T00:43:28;22.10;35.65
71514;DHT22;59335;46.652;21.272;2022-12-18T00:46:31;22.13;35.64
71514;DHT22;59335;46.652;21.272;2022-12-18T00:49:34;22.12;35.66
71514;DHT22;59335;46.652;21.272;2022-12-18T00:52:37;22.09;35.59
71514;DHT22;59335;46.652;21.272;2022-12-18T00:55:40;22.09;35.61
71514;DHT22;59335;46.652;21.272;2022-12-18T00:58:43;22.07;35.64
71514;DHT22;59335;46.652;21.272;2022-12-18T01:01:45;22.09;35.61
71514;DHT22;59335;46.652;21.272;2022-12-18T01:04:49;22.09;35.53
71514;DHT22;59335;46.652;21.272;2022-12-18T01:07:55;22.09;35.59
71514;DHT22;59335;46.652;21.272;2022-12-18T01:10:58;22.07;35.54
71514;DHT22;59335;46.652;21.272;2022-12-18T01:14:01;22.07;35.53
71514;DHT22;59335;46.652;21.272;2022-12-18T01:17:04;22.06;35.57
71514;DHT22;59335;46.652;21.272;2022-12-18T01:20:09;22.07;35.58
71514;DHT22;59335;46.652;21.272;2022-12-18T01:23:13;22.06;35.47
71514;DHT22;59335;46.652;21.272;2022-12-18T01:26:16;22.10;35.51
71514;DHT22;59335;46.652;21.272;2022-12-18T01:29:18;22.10;35.49
71514;DHT22;59335;46.652;21.272;2022-12-18T01:32:21;22.09;35.49
71514;DHT22;59335;46.652;21.272;2022-12-18T01:35:24;22.07;35.49
71514;DHT22;59335;46.652;21.272;2022-12-18T01:38:28;22.06;35.49
71514;DHT22;59335;46.652;21.272;2022-12-18T01:41:33;22.07;35.44
71514;DHT22;59335;46.652;21.272;2022-12-18T01:48:29;22.07;35.44
71514;DHT22;59335;46.652;21.272;2022-12-18T01:51:32;22.05;35.37
71514;DHT22;59335;46.652;21.272;2022-12-18T01:54:35;22.06;35.44
71514;DHT22;59335;46.652;21.272;2022-12-18T01:57:39;22.09;35.45
71514;DHT22;59335;46.652;21.272;2022-12-18T02:00:42;22.05;35.37
71514;DHT22;59335;46.652;21.272;2022-12-18T02:03:46;22.07;35.44
71514;DHT22;59335;46.652;21.272;2022-12-18T02:06:58;22.03;35.43
71514;DHT22;59335;46.652;21.272;2022-12-18T02:10:21;22.07;35.38
71514;DHT22;59335;46.652;21.272;2022-12-18T02:14:28;22.07;35.33
71514;DHT22;59335;46.652;21.272;2022-12-18T02:17:09;22.05;35.38
71514;DHT22;59335;46.652;21.272;2022-12-18T02:27:03;22.03;35.30
71514;DHT22;59335;46.652;21.272;2022-12-18T02:30:07;22.05;35.23
71514;DHT22;59335;46.652;21.272;2022-12-18T02:33:13;22.05;35.22
71514;DHT22;59335;46.652;21.272;2022-12-18T02:36:18;22.05;35.20
71514;DHT22;59335;46.652;21.272;2022-12-18T02:39:25;22.06;35.16
71514;DHT22;59335;46.652;21.272;2022-12-18T02:42:36;22.03;35.18
71514;DHT22;59335;46.652;21.272;2022-12-18T02:45:52;22.03;35.06
71514;DHT22;59335;46.652;21.272;2022-12-18T02:52:54;22.03;35.02
71514;DHT22;59335;46.652;21.272;2022-12-18T02:59:33;22.02;34.89
71514;DHT22;59335;46.652;21.272;2022-12-18T03:05:53;22.03;34.94
71514;DHT22;59335;46.652;21.272;2022-12-18T03:09:10;22.00;34.88
71514;DHT22;59335;46.652;21.272;2022-12-18T03:12:21;22.02;34.94
71514;DHT22;59335;46.652;21.272;2022-12-18T03:15:38;22.02;34.88
71514;DHT22;59335;46.652;21.272;2022-12-18T03:18:51;22.02;34.84
71514;DHT22;59335;46.652;21.272;2022-12-18T03:21:56;22.02;34.81
71514;DHT22;59335;46.652;21.272;2022-12-18T03:25:03;22.03;34.80
71514;DHT22;59335;46.652;21.272;2022-12-18T03:28:10;22.02;34.68
71514;DHT22;59335;46.652;21.272;2022-12-18T03:31:15;22.00;34.66
71514;DHT22;59335;46.652;21.272;2022-12-18T03:34:29;22.02;34.62
71514;DHT22;59335;46.652;21.272;2022-12-18T03:37:36;22.02;34.64
71514;DHT22;59335;46.652;21.272;2022-12-18T03:47:17;22.03;34.53
71514;DHT22;59335;46.652;21.272;2022-12-18T03:50:30;22.03;34.49
71514;DHT22;59335;46.652;21.272;2022-12-18T03:53:52;22.03;34.52
71514;DHT22;59335;46.652;21.272;2022-12-18T03:57:09;22.03;34.45
71514;DHT22;59335;46.652;21.272;2022-12-18T04:00:15;22.02;34.42
71514;DHT22;59335;46.652;21.272;2022-12-18T04:03:34;22.03;34.39
71514;DHT22;59335;46.652;21.272;2022-12-18T04:06:38;22.00;34.34
71514;DHT22;59335;46.652;21.272;2022-12-18T04:09:45;22.02;34.34
71514;DHT22;59335;46.652;21.272;2022-12-18T04:12:49;22.00;34.34
71514;DHT22;59335;46.652;21.272;2022-12-18T04:15:52;22.00;34.34
71514;DHT22;59335;46.652;21.272;2022-12-18T04:18:57;22.00;34.29
71514;DHT22;59335;46.652;21.272;2022-12-18T04:22:03;22.03;34.27
71514;DHT22;59335;46.652;21.272;2022-12-18T04:25:13;22.02;34.22
71514;DHT22;59335;46.652;21.272;2022-12-18T04:28:28;22.05;34.25
71514;DHT22;59335;46.652;21.272;2022-12-18T04:31:31;22.00;34.21
71514;DHT22;59335;46.652;21.272;2022-12-18T04:34:34;22.00;34.15
71514;DHT22;59335;46.652;21.272;2022-12-18T04:37:37;21.99;34.19
71514;DHT22;59335;46.652;21.272;2022-12-18T04:40:41;22.00;34.17
71514;DHT22;59335;46.652;21.272;2022-12-18T04:43:51;21.99;34.11
71514;DHT22;59335;46.652;21.272;2022-12-18T04:46:54;22.00;34.08
71514;DHT22;59335;46.652;21.272;2022-12-18T04:49:58;22.00;34.07
71514;DHT22;59335;46.652;21.272;2022-12-18T04:53:02;21.98;34.07
71514;DHT22;59335;46.652;21.272;2022-12-18T04:56:13;22.00;34.12
71514;DHT22;59335;46.652;21.272;2022-12-18T04:59:16;21.99;34.12
71514;DHT22;59335;46.652;21.272;2022-12-18T05:02:19;21.99;34.11
71514;DHT22;59335;46.652;21.272;2022-12-18T05:05:23;21.98;34.00
71514;DHT22;59335;46.652;21.272;2022-12-18T05:08:26;21.99;34.01
71514;DHT22;59335;46.652;21.272;2022-12-18T05:11:29;22.00;34.10
71514;DHT22;59335;46.652;21.272;2022-12-18T05:14:32;21.98;34.12
71514;DHT22;59335;46.652;21.272;2022-12-18T05:17:34;22.00;34.01
71514;DHT22;59335;46.652;21.272;2022-12-18T05:20:37;21.99;33.95
71514;DHT22;59335;46.652;21.272;2022-12-18T05:23:40;21.99;34.05
71514;DHT22;59335;46.652;21.272;2022-12-18T05:26:43;21.96;33.91
71514;DHT22;59335;46.652;21.272;2022-12-18T05:29:46;21.98;33.94
71514;DHT22;59335;46.652;21.272;2022-12-18T05:32:48;21.99;33.97
71514;DHT22;59335;46.652;21.272;2022-12-18T05:35:59;21.98;33.88
71514;DHT22;59335;46.652;21.272;2022-12-18T05:39:02;21.98;33.97
71514;DHT22;59335;46.652;21.272;2022-12-18T05:42:05;21.98;33.93
71514;DHT22;59335;46.652;21.272;2022-12-18T05:45:08;21.98;33.88
71514;DHT22;59335;46.652;21.272;2022-12-18T05:48:13;21.96;33.86
71514;DHT22;59335;46.652;21.272;2022-12-18T05:51:17;21.96;33.81
71514;DHT22;59335;46.652;21.272;2022-12-18T05:54:20;21.95;33.77
71514;DHT22;59335;46.652;21.272;2022-12-18T05:57:23;21.95;33.81
71514;DHT22;59335;46.652;21.272;2022-12-18T06:00:25;21.93;33.83
71514;DHT22;59335;46.652;21.272;2022-12-18T06:03:28;21.95;33.80
71514;DHT22;59335;46.652;21.272;2022-12-18T06:06:35;21.96;33.77
71514;DHT22;59335;46.652;21.272;2022-12-18T06:09:38;21.95;33.78
71514;DHT22;59335;46.652;21.272;2022-12-18T06:12:41;21.96;33.81
71514;DHT22;59335;46.652;21.272;2022-12-18T06:15:43;21.95;33.81
71514;DHT22;59335;46.652;21.272;2022-12-18T06:18:47;21.95;33.83
71514;DHT22;59335;46.652;21.272;2022-12-18T06:21:50;21.95;33.79
71514;DHT22;59335;46.652;21.272;2022-12-18T06:24:53;21.96;33.71
71514;DHT22;59335;46.652;21.272;2022-12-18T06:27:56;21.93;33.76
71514;DHT22;59335;46.652;21.272;2022-12-18T06:30:58;21.92;33.70
71514;DHT22;59335;46.652;21.272;2022-12-18T06:34:04;21.95;33.72
71514;DHT22;59335;46.652;21.272;2022-12-18T06:37:07;21.92;33.70
71514;DHT22;59335;46.652;21.272;2022-12-18T06:40:11;21.93;33.69
71514;DHT22;59335;46.652;21.272;2022-12-18T06:43:14;21.95;33.65
71514;DHT22;59335;46.652;21.272;2022-12-18T06:46:16;21.95;33.56
71514;DHT22;59335;46.652;21.272;2022-12-18T06:49:19;21.96;33.62
71514;DHT22;59335;46.652;21.272;2022-12-18T06:52:22;21.96;33.62
71514;DHT22;59335;46.652;21.272;2022-12-18T06:55:24;21.98;33.53
71514;DHT22;59335;46.652;21.272;2022-12-18T06:58:27;21.98;33.59
71514;DHT22;59335;46.652;21.272;2022-12-18T07:01:30;21.95;33.48
71514;DHT22;59335;46.652;21.272;2022-12-18T07:04:33;21.95;33.54
71514;DHT22;59335;46.652;21.272;2022-12-18T07:07:36;21.99;33.48
71514;DHT22;59335;46.652;21.272;2022-12-18T07:10:42;22.02;33.49
71514;DHT22;59335;46.652;21.272;2022-12-18T07:13:50;21.99;33.59
71514;DHT22;59335;46.652;21.272;2022-12-18T07:16:52;22.00;33.56
71514;DHT22;59335;46.652;21.272;2022-12-18T07:19:56;22.03;33.50
71514;DHT22;59335;46.652;21.272;2022-12-18T07:22:58;22.02;33.46
71514;DHT22;59335;46.652;21.272;2022-12-18T07:26:05;22.03;33.50
71514;DHT22;59335;46.652;21.272;2022-12-18T07:29:08;22.06;33.40
71514;DHT22;59335;46.652;21.272;2022-12-18T07:32:11;22.09;33.49
71514;DHT22;59335;46.652;21.272;2022-12-18T07:35:15;22.10;33.39
71514;DHT22;59335;46.652;21.272;2022-12-18T07:38:23;22.10;33.48
71514;DHT22;59335;46.652;21.272;2022-12-18T07:41:25;22.14;33.49
71514;DHT22;59335;46.652;21.272;2022-12-18T07:44:28;22.13;33.65
71514;DHT22;59335;46.652;21.272;2022-12-18T07:47:34;22.16;33.73
71514;DHT22;59335;46.652;21.272;2022-12-18T07:50:38;22.17;34.04
71514;DHT22;59335;46.652;21.272;2022-12-18T07:53:40;22.23;34.10
71514;DHT22;59335;46.652;21.272;2022-12-18T07:56:44;22.23;34.16
71514;DHT22;59335;46.652;21.272;2022-12-18T07:59:47;22.24;34.19
71514;DHT22;59335;46.652;21.272;2022-12-18T08:02:50;22.26;34.24
71514;DHT22;59335;46.652;21.272;2022-12-18T08:05:52;22.27;34.22
71514;DHT22;59335;46.652;21.272;2022-12-18T08:09:00;22.30;34.25
71514;DHT22;59335;46.652;21.272;2022-12-18T08:12:03;22.32;34.28
71514;DHT22;59335;46.652;21.272;2022-12-18T08:15:06;22.32;34.29
71514;DHT22;59335;46.652;21.272;2022-12-18T08:18:09;22.34;34.27
71514;DHT22;59335;46.652;21.272;2022-12-18T08:21:17;22.34;34.27
71514;DHT22;59335;46.652;21.272;2022-12-18T08:24:22;22.33;34.22
71514;DHT22;59335;46.652;21.272;2022-12-18T08:27:25;22.32;34.13
71514;DHT22;59335;46.652;21.272;2022-12-18T08:30:31;22.34;34.07
71514;DHT22;59335;46.652;21.272;2022-12-18T08:33:35;22.34;34.14
71514;DHT22;59335;46.652;21.272;2022-12-18T08:36:37;22.34;34.06
71514;DHT22;59335;46.652;21.272;2022-12-18T08:39:40;22.36;34.07
71514;DHT22;59335;46.652;21.272;2022-12-18T08:42:43;22.37;34.07
71514;DHT22;59335;46.652;21.272;2022-12-18T08:46:04;22.36;34.06
71514;DHT22;59335;46.652;21.272;2022-12-18T08:49:08;22.37;34.06
71514;DHT22;59335;46.652;21.272;2022-12-18T08:52:14;22.40;33.99
71514;DHT22;59335;46.652;21.272;2022-12-18T08:55:16;22.39;33.98
71514;DHT22;59335;46.652;21.272;2022-12-18T08:58:19;22.40;33.95
71514;DHT22;59335;46.652;21.272;2022-12-18T09:01:22;22.40;33.92
71514;DHT22;59335;46.652;21.272;2022-12-18T09:04:26;22.39;33.81
71514;DHT22;59335;46.652;21.272;2022-12-18T09:07:28;22.39;33.89
71514;DHT22;59335;46.652;21.272;2022-12-18T09:10:31;22.37;33.84
71514;DHT22;59335;46.652;21.272;2022-12-18T09:13:34;22.39;33.88
71514;DHT22;59335;46.652;21.272;2022-12-18T09:16:36;22.40;33.78
71514;DHT22;59335;46.652;21.272;2022-12-18T09:19:39;22.39;33.65
71514;DHT22;59335;46.652;21.272;2022-12-18T09:22:42;22.37;33.58
71514;DHT22;59335;46.652;21.272;2022-12-18T09:25:44;22.37;33.60
71514;DHT22;59335;46.652;21.272;2022-12-18T09:28:47;22.37;33.60
71514;DHT22;59335;46.652;21.272;2022-12-18T09:31:51;22.34;33.54
71514;DHT22;59335;46.652;21.272;2022-12-18T09:34:54;22.37;33.53
71514;DHT22;59335;46.652;21.272;2022-12-18T09:37:56;22.34;33.61
71514;DHT22;59335;46.652;21.272;2022-12-18T09:41:05;22.37;33.51
71514;DHT22;59335;46.652;21.272;2022-12-18T09:44:24;22.34;33.43
71514;DHT22;59335;46.652;21.272;2022-12-18T09:47:34;22.34;33.31
71514;DHT22;59335;46.652;21.272;2022-12-18T09:50:39;22.34;33.44
71514;DHT22;59335;46.652;21.272;2022-12-18T09:53:47;22.33;33.51
71514;DHT22;59335;46.652;21.272;2022-12-18T09:56:52;22.33;33.44
71514;DHT22;59335;46.652;21.272;2022-12-18T10:00:08;22.36;33.41
71514;DHT22;59335;46.652;21.272;2022-12-18T10:03:16;22.33;33.47
71514;DHT22;59335;46.652;21.272;2022-12-18T10:10:05;22.32;33.22
71514;DHT22;59335;46.652;21.272;2022-12-18T10:13:19;22.30;33.12
71514;DHT22;59335;46.652;21.272;2022-12-18T10:19:54;22.29;33.02
71514;DHT22;59335;46.652;21.272;2022-12-18T10:23:04;22.30;32.92
71514;DHT22;59335;46.652;21.272;2022-12-18T10:26:10;22.27;32.97
71514;DHT22;59335;46.652;21.272;2022-12-18T10:29:16;22.27;32.99
71514;DHT22;59335;46.652;21.272;2022-12-18T10:32:22;22.27;32.88
71514;DHT22;59335;46.652;21.272;2022-12-18T10:35:26;22.27;32.86
71514;DHT22;59335;46.652;21.272;2022-12-18T10:38:32;22.26;32.89
71514;DHT22;59335;46.652;21.272;2022-12-18T10:41:35;22.29;32.91
71514;DHT22;59335;46.652;21.272;2022-12-18T10:44:37;22.24;32.92
71514;DHT22;59335;46.652;21.272;2022-12-18T10:47:46;22.27;32.82
71514;DHT22;59335;46.652;21.272;2022-12-18T10:50:51;22.26;32.80
71514;DHT22;59335;46.652;21.272;2022-12-18T10:54:17;22.27;32.89
71514;DHT22;59335;46.652;21.272;2022-12-18T11:00:29;22.27;32.83
71514;DHT22;59335;46.652;21.272;2022-12-18T11:07:06;22.24;32.74
71514;DHT22;59335;46.652;21.272;2022-12-18T11:10:18;22.24;32.80
71514;DHT22;59335;46.652;21.272;2022-12-18T11:13:24;22.26;32.78
71514;DHT22;59335;46.652;21.272;2022-12-18T11:16:28;22.23;32.69
71514;DHT22;59335;46.652;21.272;2022-12-18T11:19:36;22.23;32.74
71514;DHT22;59335;46.652;21.272;2022-12-18T11:22:39;22.24;32.71
71514;DHT22;59335;46.652;21.272;2022-12-18T11:25:55;22.23;32.71
71514;DHT22;59335;46.652;21.272;2022-12-18T11:29:10;22.26;32.74
71514;DHT22;59335;46.652;21.272;2022-12-18T11:32:29;22.23;32.66
71514;DHT22;59335;46.652;21.272;2022-12-18T11:35:52;22.23;32.60
71514;DHT22;59335;46.652;21.272;2022-12-18T11:38:59;22.20;32.59
71514;DHT22;59335;46.652;21.272;2022-12-18T11:42:10;22.24;32.53
71514;DHT22;59335;46.652;21.272;2022-12-18T11:45:30;22.24;32.46
71514;DHT22;59335;46.652;21.272;2022-12-18T11:48:43;22.21;32.53
71514;DHT22;59335;46.652;21.272;2022-12-18T11:51:51;22.20;32.48
71514;DHT22;59335;46.652;21.272;2022-12-18T11:54:58;22.23;32.50
71514;DHT22;59335;46.652;21.272;2022-12-18T11:58:44;22.21;32.48
71514;DHT22;59335;46.652;21.272;2022-12-18T12:02:09;22.19;32.49
71514;DHT22;59335;46.652;21.272;2022-12-18T12:05:29;22.21;32.42
71514;DHT22;59335;46.652;21.272;2022-12-18T12:12:33;22.23;32.42
71514;DHT22;59335;46.652;21.272;2022-12-18T12:30:06;22.14;32.39
71514;DHT22;59335;46.652;21.272;2022-12-18T12:33:36;22.17;32.36
71514;DHT22;59335;46.652;21.272;2022-12-18T12:39:58;22.20;32.31
71514;DHT22;59335;46.652;21.272;2022-12-18T12:43:25;22.19;32.25
71514;DHT22;59335;46.652;21.272;2022-12-18T12:46:33;22.20;32.26
71514;DHT22;59335;46.652;21.272;2022-12-18T12:49:38;22.17;32.25
71514;DHT22;59335;46.652;21.272;2022-12-18T12:52:46;22.21;32.31
71514;DHT22;59335;46.652;21.272;2022-12-18T12:55:50;22.17;32.25
71514;DHT22;59335;46.652;21.272;2022-12-18T12:59:15;22.19;32.25
71514;DHT22;59335;46.652;21.272;2022-12-18T13:02:30;22.17;32.19
71514;DHT22;59335;46.652;21.272;2022-12-18T13:05:58;22.19;32.14
71514;DHT22;59335;46.652;21.272;2022-12-18T13:09:04;22.17;32.19
71514;DHT22;59335;46.652;21.272;2022-12-18T13:12:11;22.17;32.20
71514;DHT22;59335;46.652;21.272;2022-12-18T13:18:51;22.19;32.14
71514;DHT22;59335;46.652;21.272;2022-12-18T13:21:55;22.17;32.15
71514;DHT22;59335;46.652;21.272;2022-12-18T13:24:59;22.16;32.17
71514;DHT22;59335;46.652;21.272;2022-12-18T13:28:16;22.16;32.17
71514;DHT22;59335;46.652;21.272;2022-12-18T13:34:44;22.13;32.06
71514;DHT22;59335;46.652;21.272;2022-12-18T13:37:54;22.13;32.03
71514;DHT22;59335;46.652;21.272;2022-12-18T13:41:03;22.13;32.08
71514;DHT22;59335;46.652;21.272;2022-12-18T13:44:34;22.10;32.09
71514;DHT22;59335;46.652;21.272;2022-12-18T13:47:43;22.13;32.11
71514;DHT22;59335;46.652;21.272;2022-12-18T13:54:39;22.12;32.18
71514;DHT22;59335;46.652;21.272;2022-12-18T13:57:43;22.10;32.12
71514;DHT22;59335;46.652;21.272;2022-12-18T14:00:46;22.09;32.14
71514;DHT22;59335;46.652;21.272;2022-12-18T14:03:49;22.12;32.10
71514;DHT22;59335;46.652;21.272;2022-12-18T14:06:56;22.10;32.15
71514;DHT22;59335;46.652;21.272;2022-12-18T14:10:00;22.09;32.18
71514;DHT22;59335;46.652;21.272;2022-12-18T14:13:32;22.09;32.15
71514;DHT22;59335;46.652;21.272;2022-12-18T14:16:36;22.09;32.15
71514;DHT22;59335;46.652;21.272;2022-12-18T14:19:48;22.10;32.15
71514;DHT22;59335;46.652;21.272;2022-12-18T14:22:51;22.07;32.12
71514;DHT22;59335;46.652;21.272;2022-12-18T14:25:54;22.09;32.16
71514;DHT22;59335;46.652;21.272;2022-12-18T14:32:27;22.06;32.16
71514;DHT22;59335;46.652;21.272;2022-12-18T14:35:30;22.06;32.12
71514;DHT22;59335;46.652;21.272;2022-12-18T14:38:35;22.07;32.13
71514;DHT22;59335;46.652;21.272;2022-12-18T14:41:38;22.06;32.15
71514;DHT22;59335;46.652;21.272;2022-12-18T14:44:40;22.05;32.19
71514;DHT22;59335;46.652;21.272;2022-12-18T14:48:11;22.05;32.18
71514;DHT22;59335;46.652;21.272;2022-12-18T14:51:20;22.05;32.18
71514;DHT22;59335;46.652;21.272;2022-12-18T14:54:28;22.03;32.19
71514;DHT22;59335;46.652;21.272;2022-12-18T14:57:36;22.06;32.20
71514;DHT22;59335;46.652;21.272;2022-12-18T15:00:41;22.05;32.18
71514;DHT22;59335;46.652;21.272;2022-12-18T15:03:44;22.03;32.15
71514;DHT22;59335;46.652;21.272;2022-12-18T15:06:48;22.03;32.24
71514;DHT22;59335;46.652;21.272;2022-12-18T15:13:24;22.00;32.17
71514;DHT22;59335;46.652;21.272;2022-12-18T15:16:29;22.03;32.20
71514;DHT22;59335;46.652;21.272;2022-12-18T15:19:40;22.03;32.10
71514;DHT22;59335;46.652;21.272;2022-12-18T15:22:47;22.02;32.05
71514;DHT22;59335;46.652;21.272;2022-12-18T15:26:07;22.02;32.10
71514;DHT22;59335;46.652;21.272;2022-12-18T15:29:19;22.05;32.17
71514;DHT22;59335;46.652;21.272;2022-12-18T15:32:25;22.03;32.07
71514;DHT22;59335;46.652;21.272;2022-12-18T15:35:28;22.03;32.05
71514;DHT22;59335;46.652;21.272;2022-12-18T15:38:35;22.03;32.19
71514;DHT22;59335;46.652;21.272;2022-12-18T15:41:39;22.00;32.05
71514;DHT22;59335;46.652;21.272;2022-12-18T15:44:43;22.02;32.05
71514;DHT22;59335;46.652;21.272;2022-12-18T15:47:48;22.02;32.04
71514;DHT22;59335;46.652;21.272;2022-12-18T15:50:55;21.99;32.05
71514;DHT22;59335;46.652;21.272;2022-12-18T15:54:02;22.00;32.00
71514;DHT22;59335;46.652;21.272;2022-12-18T15:57:12;21.98;32.04
71514;DHT22;59335;46.652;21.272;2022-12-18T16:00:28;21.99;32.03
71514;DHT22;59335;46.652;21.272;2022-12-18T16:03:32;22.00;32.04
71514;DHT22;59335;46.652;21.272;2022-12-18T16:06:35;21.99;32.02
71514;DHT22;59335;46.652;21.272;2022-12-18T16:09:59;21.99;32.02
71514;DHT22;59335;46.652;21.272;2022-12-18T16:13:04;22.00;32.02
71514;DHT22;59335;46.652;21.272;2022-12-18T16:16:08;21.96;32.05
71514;DHT22;59335;46.652;21.272;2022-12-18T16:19:12;21.99;31.99
71514;DHT22;59335;46.652;21.272;2022-12-18T16:22:23;21.98;31.98
71514;DHT22;59335;46.652;21.272;2022-12-18T16:25:28;22.00;31.93
71514;DHT22;59335;46.652;21.272;2022-12-18T16:28:32;21.98;31.91
71514;DHT22;59335;46.652;21.272;2022-12-18T16:31:37;21.98;31.90
71514;DHT22;59335;46.652;21.272;2022-12-18T16:34:41;21.98;31.91
71514;DHT22;59335;46.652;21.272;2022-12-18T16:37:46;21.96;31.81
71514;DHT22;59335;46.652;21.272;2022-12-18T16:40:49;21.99;31.85
71514;DHT22;59335;46.652;21.272;2022-12-18T16:44:13;21.96;31.79
71514;DHT22;59335;46.652;21.272;2022-12-18T16:47:18;21.96;31.85
71514;DHT22;59335;46.652;21.272;2022-12-18T16:50:22;21.96;31.75
71514;DHT22;59335;46.652;21.272;2022-12-18T16:53:28;21.96;31.71
71514;DHT22;59335;46.652;21.272;2022-12-18T16:56:34;21.98;31.79
71514;DHT22;59335;46.652;21.272;2022-12-18T16:59:39;21.98;31.73
71514;DHT22;59335;46.652;21.272;2022-12-18T17:02:42;21.93;31.79
71514;DHT22;59335;46.652;21.272;2022-12-18T17:05:50;21.98;31.85
71514;DHT22;59335;46.652;21.272;2022-12-18T17:08:56;21.96;31.75
71514;DHT22;59335;46.652;21.272;2022-12-18T17:12:01;21.99;31.75
71514;DHT22;59335;46.652;21.272;2022-12-18T17:15:07;21.96;31.76
71514;DHT22;59335;46.652;21.272;2022-12-18T17:18:12;21.96;31.77
71514;DHT22;59335;46.652;21.272;2022-12-18T17:21:15;21.98;31.72
71514;DHT22;59335;46.652;21.272;2022-12-18T17:24:19;21.96;31.76
71514;DHT22;59335;46.652;21.272;2022-12-18T17:27:23;21.96;31.76
71514;DHT22;59335;46.652;21.272;2022-12-18T17:30:28;21.95;31.73
71514;DHT22;59335;46.652;21.272;2022-12-18T17:33:34;21.95;31.79
71514;DHT22;59335;46.652;21.272;2022-12-18T17:36:38;21.93;31.77
71514;DHT22;59335;46.652;21.272;2022-12-18T17:39:43;21.95;31.74
71514;DHT22;59335;46.652;21.272;2022-12-18T17:42:51;21.95;31.82
71514;DHT22;59335;46.652;21.272;2022-12-18T17:46:03;21.95;31.80
71514;DHT22;59335;46.652;21.272;2022-12-18T17:49:10;21.95;31.76
71514;DHT22;59335;46.652;21.272;2022-12-18T17:52:14;21.95;31.80
71514;DHT22;59335;46.652;21.272;2022-12-18T17:55:19;21.93;31.76
71514;DHT22;59335;46.652;21.272;2022-12-18T17:58:24;21.93;31.79
71514;DHT22;59335;46.652;21.272;2022-12-18T18:01:27;21.92;31.82
71514;DHT22;59335;46.652;21.272;2022-12-18T18:04:31;21.90;31.79
71514;DHT22;59335;46.652;21.272;2022-12-18T18:07:34;21.96;31.79
71514;DHT22;59335;46.652;21.272;2022-12-18T18:10:38;21.93;31.80
71514;DHT22;59335;46.652;21.272;2022-12-18T18:13:44;21.92;31.79
71514;DHT22;59335;46.652;21.272;2022-12-18T18:17:05;21.93;31.79
71514;DHT22;59335;46.652;21.272;2022-12-18T18:20:09;21.93;31.76
71514;DHT22;59335;46.652;21.272;2022-12-18T18:23:13;21.93;31.75
71514;DHT22;59335;46.652;21.272;2022-12-18T18:26:16;21.93;31.73
71514;DHT22;59335;46.652;21.272;2022-12-18T18:29:24;21.90;31.64
71514;DHT22;59335;46.652;21.272;2022-12-18T18:32:29;21.92;31.74
71514;DHT22;59335;46.652;21.272;2022-12-18T18:35:34;21.92;31.77
71514;DHT22;59335;46.652;21.272;2022-12-18T18:38:59;21.93;31.71
71514;DHT22;59335;46.652;21.272;2022-12-18T18:42:03;21.92;31.67
71514;DHT22;59335;46.652;21.272;2022-12-18T18:45:09;21.93;31.73
71514;DHT22;59335;46.652;21.272;2022-12-18T18:48:13;21.90;31.64
71514;DHT22;59335;46.652;21.272;2022-12-18T18:51:17;21.89;31.62
71514;DHT22;59335;46.652;21.272;2022-12-18T18:54:24;21.92;31.65
71514;DHT22;59335;46.652;21.272;2022-12-18T18:57:29;21.92;31.71
71514;DHT22;59335;46.652;21.272;2022-12-18T19:00:33;21.88;31.71
71514;DHT22;59335;46.652;21.272;2022-12-18T19:03:38;21.90;31.65
71514;DHT22;59335;46.652;21.272;2022-12-18T19:06:41;21.90;31.61
71514;DHT22;59335;46.652;21.272;2022-12-18T19:09:47;21.88;31.58
71514;DHT22;59335;46.652;21.272;2022-12-18T19:12:54;21.89;31.57
71514;DHT22;59335;46.652;21.272;2022-12-18T19:16:16;21.90;31.58
71514;DHT22;59335;46.652;21.272;2022-12-18T19:19:23;21.90;31.66
71514;DHT22;59335;46.652;21.272;2022-12-18T19:22:27;21.92;31.65
71514;DHT22;59335;46.652;21.272;2022-12-18T19:25:31;21.90;31.59
71514;DHT22;59335;46.652;21.272;2022-12-18T19:28:43;21.89;31.65
71514;DHT22;59335;46.652;21.272;2022-12-18T19:31:51;21.88;31.56
71514;DHT22;59335;46.652;21.272;2022-12-18T19:34:56;21.89;31.54
71514;DHT22;59335;46.652;21.272;2022-12-18T19:38:01;21.88;31.53
71514;DHT22;59335;46.652;21.272;2022-12-18T19:41:07;21.89;31.51
71514;DHT22;59335;46.652;21.272;2022-12-18T19:44:14;21.88;31.55
71514;DHT22;59335;46.652;21.272;2022-12-18T19:47:19;21.88;31.42
71514;DHT22;59335;46.652;21.272;2022-12-18T19:50:23;21.86;31.48
71514;DHT22;59335;46.652;21.272;2022-12-18T19:53:26;21.86;31.50
71514;DHT22;59335;46.652;21.272;2022-12-18T19:56:32;21.89;31.45
71514;DHT22;59335;46.652;21.272;2022-12-18T19:59:37;21.86;31.48
71514;DHT22;59335;46.652;21.272;2022-12-18T20:02:43;21.88;31.45
71514;DHT22;59335;46.652;21.272;2022-12-18T20:05:47;21.89;31.45
71514;DHT22;59335;46.652;21.272;2022-12-18T20:08:50;21.86;31.45
71514;DHT22;59335;46.652;21.272;2022-12-18T20:12:02;21.89;31.45
71514;DHT22;59335;46.652;21.272;2022-12-18T20:15:05;21.86;31.45
71514;DHT22;59335;46.652;21.272;2022-12-18T20:18:09;21.88;31.40
71514;DHT22;59335;46.652;21.272;2022-12-18T20:21:15;21.86;31.39
71514;DHT22;59335;46.652;21.272;2022-12-18T20:24:19;21.89;31.31
71514;DHT22;59335;46.652;21.272;2022-12-18T20:27:23;21.86;31.21
71514;DHT22;59335;46.652;21.272;2022-12-18T20:30:26;21.86;31.33
71514;DHT22;59335;46.652;21.272;2022-12-18T20:33:30;21.85;31.21
71514;DHT22;59335;46.652;21.272;2022-12-18T20:36:34;21.86;31.24
71514;DHT22;59335;46.652;21.272;2022-12-18T20:39:40;21.85;31.21